createdAt,value
2017-09-30T15:21:29.561Z,39.38
2017-09-30T15:22:29.759Z,39.38
2017-09-30T15:23:29.487Z,33.75
2017-09-30T15:24:29.601Z,33.75
2017-09-30T15:25:29.471Z,33.75
2017-09-30T15:26:29.608Z,28.13
2017-09-30T15:27:29.418Z,28.13
2017-09-30T15:28:29.524Z,28.13
2017-09-30T15:29:29.396Z,28.13
2017-09-30T15:30:29.535Z,28.13
2017-09-30T15:31:29.343Z,28.13
2017-09-30T15:32:29.454Z,28.13
2017-09-30T15:33:29.324Z,28.13
2017-09-30T15:34:29.470Z,28.13
2017-09-30T15:35:29.272Z,28.13
2017-09-30T15:36:29.484Z,28.13
2017-09-30T15:37:29.280Z,28.13
2017-09-30T15:38:29.373Z,28.13
2017-09-30T15:39:29.226Z,28.13
2017-09-30T15:40:29.395Z,28.13
2017-09-30T15:41:29.196Z,28.13
2017-09-30T15:42:29.317Z,28.13
2017-09-30T15:43:29.176Z,28.13
2017-09-30T15:44:29.317Z,28.13
2017-09-30T15:45:29.144Z,28.13
2017-09-30T15:46:29.240Z,28.13
2017-09-30T15:47:29.127Z,28.13
2017-09-30T15:48:29.244Z,28.13
2017-09-30T15:49:29.083Z,28.13
2017-09-30T15:50:29.248Z,28.13
2017-09-30T15:51:29.058Z,28.13
2017-09-30T15:52:29.172Z,28.13
2017-09-30T15:53:29.044Z,28.13
2017-09-30T15:54:29.177Z,28.13
2017-09-30T15:55:29.002Z,28.13
2017-09-30T15:56:29.183Z,33.75
2017-09-30T15:57:29.010Z,33.75
2017-09-30T15:58:29.092Z,33.75
2017-09-30T15:59:28.969Z,33.75
2017-09-30T16:00:29.113Z,33.75
2017-09-30T16:01:28.938Z,33.75
2017-09-30T16:02:29.028Z,39.38
2017-09-30T16:03:28.908Z,39.38
2017-09-30T16:04:29.050Z,45.00
2017-09-30T16:05:28.886Z,45.00
2017-09-30T16:06:29.062Z,39.38
2017-09-30T16:07:28.858Z,45.00
2017-09-30T16:08:28.957Z,45.00
2017-09-30T16:09:28.831Z,45.00
2017-09-30T16:10:28.969Z,45.00
2017-09-30T16:11:28.807Z,45.00
2017-09-30T16:12:28.972Z,45.00
2017-09-30T16:13:28.774Z,45.00
2017-09-30T16:14:28.903Z,45.00
2017-09-30T16:15:28.774Z,39.38
2017-09-30T16:16:28.902Z,39.38
2017-09-30T16:17:28.734Z,39.38
2017-09-30T16:18:28.827Z,39.38
2017-09-30T16:19:28.709Z,39.38
2017-09-30T16:20:28.824Z,39.38
2017-09-30T16:21:28.679Z,39.38
2017-09-30T16:22:28.751Z,39.38
2017-09-30T16:23:28.670Z,39.38
2017-09-30T16:24:28.752Z,33.75
2017-09-30T16:25:28.630Z,33.75
2017-09-30T16:26:28.753Z,33.75
2017-09-30T16:27:28.614Z,33.75
2017-09-30T16:28:28.696Z,33.75
2017-09-30T16:29:28.619Z,33.75
2017-09-30T16:30:28.690Z,33.75
2017-09-30T16:31:28.572Z,33.75
2017-09-30T16:32:28.708Z,28.13
2017-09-30T16:33:28.535Z,28.13
2017-09-30T16:34:28.536Z,28.13
2017-09-30T16:35:28.518Z,28.13
2017-09-30T16:36:28.626Z,28.13
2017-09-30T16:37:28.483Z,28.13
2017-09-30T16:38:28.525Z,28.13
2017-09-30T16:39:28.466Z,22.50
2017-09-30T16:40:28.542Z,22.50
2017-09-30T16:41:28.433Z,22.50
2017-09-30T16:42:28.593Z,22.50
2017-09-30T16:43:28.408Z,22.50
2017-09-30T16:44:28.468Z,22.50
2017-09-30T16:45:28.398Z,22.50
2017-09-30T16:46:28.518Z,16.88
2017-09-30T16:47:28.377Z,16.88
2017-09-30T16:48:28.389Z,16.88
2017-09-30T16:49:28.354Z,16.88
2017-09-30T16:50:28.498Z,16.88
2017-09-30T16:51:28.304Z,16.88
2017-09-30T16:52:28.517Z,16.88
2017-09-30T16:53:28.283Z,11.25
2017-09-30T16:54:28.426Z,11.25
2017-09-30T16:55:28.286Z,11.25
2017-09-30T16:56:28.509Z,11.25
2017-09-30T16:57:28.257Z,11.25
2017-09-30T16:58:28.448Z,11.25
2017-09-30T16:59:28.221Z,11.25
2017-09-30T17:01:28.182Z,5.63
2017-09-30T17:02:28.382Z,5.63
2017-09-30T17:03:28.154Z,5.63
2017-09-30T17:04:28.185Z,5.63
2017-09-30T17:05:28.144Z,5.63
2017-09-30T17:06:28.312Z,5.63
2017-09-30T17:07:28.121Z,5.63
2017-09-30T17:08:28.306Z,0.00
2017-09-30T17:09:28.088Z,0.00
2017-09-30T17:10:28.227Z,0.00
2017-09-30T17:11:28.084Z,0.00
2017-09-30T17:12:28.057Z,0.00
2017-09-30T17:13:28.258Z,0.00
2017-09-30T17:14:28.021Z,0.00
2017-09-30T17:15:28.143Z,0.00
2017-09-30T17:16:28.045Z,0.00
2017-09-30T17:17:28.162Z,0.00
2017-09-30T17:18:27.978Z,0.00
2017-09-30T17:19:28.171Z,0.00
2017-09-30T17:20:27.942Z,0.00
2017-09-30T17:21:28.077Z,0.00
2017-09-30T17:22:27.966Z,0.00
2017-09-30T17:23:28.096Z,0.00
2017-09-30T17:24:27.900Z,0.00
2017-09-30T17:25:28.003Z,0.00
2017-09-30T17:26:27.880Z,0.00
2017-09-30T17:27:28.019Z,0.00
2017-09-30T17:28:27.881Z,0.00
2017-09-30T17:29:28.025Z,0.00
2017-09-30T17:30:27.821Z,0.00
2017-09-30T17:31:27.939Z,0.00
2017-09-30T17:32:27.831Z,0.00
2017-09-30T17:33:27.948Z,0.00
2017-09-30T17:34:27.769Z,0.00
2017-09-30T17:35:27.867Z,0.00
2017-09-30T17:36:27.764Z,0.00
2017-09-30T17:37:27.875Z,0.00
2017-09-30T17:38:27.720Z,0.00
2017-09-30T17:39:27.891Z,0.00
2017-09-30T17:40:27.695Z,0.00
2017-09-30T17:41:27.795Z,0.00
2017-09-30T17:42:27.666Z,0.00
2017-09-30T17:43:27.807Z,0.00
2017-09-30T17:44:27.664Z,0.00
2017-09-30T17:45:27.649Z,0.00
2017-09-30T17:46:27.730Z,0.00
2017-09-30T17:47:27.608Z,0.00
2017-09-30T17:48:27.732Z,0.00
2017-09-30T17:49:27.578Z,0.00
2017-09-30T17:50:27.652Z,0.00
2017-09-30T17:51:27.575Z,0.00
2017-09-30T17:52:27.620Z,0.00
2017-09-30T17:53:27.533Z,0.00
2017-09-30T17:54:27.628Z,0.00
2017-09-30T17:55:27.507Z,0.00
2017-09-30T17:56:27.554Z,0.00
2017-09-30T17:57:27.526Z,0.00
2017-09-30T17:58:27.567Z,0.00
2017-09-30T17:59:27.489Z,0.00
2017-09-30T18:00:27.590Z,0.00
2017-09-30T18:01:27.436Z,0.00
2017-09-30T18:02:27.483Z,0.00
2017-09-30T18:03:27.395Z,0.00
2017-09-30T18:04:27.507Z,0.00
2017-09-30T18:05:27.384Z,0.00
2017-09-30T18:06:27.410Z,0.00
2017-09-30T18:07:27.343Z,0.00
2017-09-30T18:08:27.425Z,0.00
2017-09-30T18:09:27.335Z,0.00
2017-09-30T18:10:27.306Z,0.00
2017-09-30T18:12:27.338Z,0.00
2017-09-30T18:13:27.359Z,0.00
2017-09-30T18:14:27.263Z,0.00
2017-09-30T18:17:14.757Z,0.00
2017-09-30T18:41:33.610Z,0.00
2017-09-30T18:42:33.544Z,0.00
2017-09-30T18:43:33.630Z,0.00
2017-09-30T18:44:33.502Z,0.00
2017-09-30T18:45:33.535Z,0.00
2017-09-30T18:46:33.497Z,0.00
2017-09-30T18:47:33.548Z,0.00
2017-09-30T18:48:33.466Z,0.00
2017-09-30T18:49:33.660Z,0.00
2017-09-30T18:50:33.429Z,0.00
2017-09-30T18:51:33.481Z,0.00
2017-09-30T18:52:33.414Z,0.00
2017-09-30T18:53:33.493Z,0.00
2017-09-30T18:54:33.370Z,0.00
2017-09-30T18:55:33.497Z,0.00
2017-09-30T18:56:33.359Z,0.00
2017-09-30T18:57:33.425Z,0.00
2017-09-30T18:58:33.317Z,0.00
2017-09-30T18:59:33.431Z,0.00
2017-09-30T19:00:33.285Z,0.00
2017-09-30T19:01:33.334Z,0.00
2017-09-30T19:02:33.270Z,0.00
2017-09-30T19:03:34.058Z,0.00
2017-09-30T19:04:33.236Z,0.00
2017-09-30T19:05:33.276Z,0.00
2017-09-30T19:06:33.232Z,0.00
2017-09-30T19:07:33.284Z,0.00
2017-09-30T19:08:33.181Z,0.00
2017-09-30T19:09:33.297Z,0.00
2017-09-30T19:10:33.144Z,0.00
2017-09-30T19:11:33.160Z,0.00
2017-09-30T19:12:33.269Z,0.00
2017-09-30T19:13:33.119Z,0.00
2017-09-30T19:14:33.233Z,0.00
2017-09-30T19:15:33.079Z,0.00
2017-09-30T19:16:33.137Z,0.00
2017-09-30T19:17:33.061Z,0.00
2017-09-30T19:18:33.159Z,0.00
2017-09-30T19:19:33.021Z,0.00
2017-09-30T19:20:33.064Z,0.00
2017-09-30T19:21:33.000Z,0.00
2017-09-30T19:22:33.081Z,0.00
2017-09-30T19:23:32.992Z,0.00
2017-09-30T19:24:32.994Z,0.00
2017-09-30T19:25:32.951Z,0.00
2017-09-30T19:26:33.006Z,0.00
2017-09-30T19:27:32.924Z,0.00
2017-09-30T19:28:33.035Z,0.00
2017-09-30T19:29:32.887Z,0.00
2017-09-30T19:30:32.936Z,0.00
2017-09-30T19:31:32.869Z,0.00
2017-09-30T19:32:32.951Z,0.00
2017-09-30T19:33:32.832Z,0.00
2017-09-30T19:34:32.858Z,0.00
2017-09-30T19:35:32.815Z,0.00
2017-09-30T19:36:32.882Z,0.00
2017-09-30T19:37:32.779Z,0.00
2017-09-30T19:38:32.885Z,0.00
2017-09-30T19:39:32.757Z,0.00
2017-09-30T19:40:32.797Z,0.00
2017-09-30T19:41:32.732Z,0.00
2017-09-30T19:42:32.826Z,0.00
2017-09-30T19:43:32.688Z,0.00
2017-09-30T19:44:32.732Z,0.00
2017-09-30T19:45:32.677Z,0.00
2017-09-30T19:46:32.745Z,0.00
2017-09-30T19:47:32.659Z,0.00
2017-09-30T19:48:32.651Z,0.00
2017-09-30T19:49:32.619Z,0.00
2017-09-30T19:50:32.676Z,0.00
2017-09-30T19:51:32.580Z,0.00
2017-09-30T19:52:32.685Z,0.00
2017-09-30T19:53:32.563Z,0.00
2017-09-30T19:54:32.594Z,0.00
2017-09-30T19:55:32.533Z,0.00
2017-09-30T19:56:32.619Z,0.00
2017-09-30T19:57:32.512Z,0.00
2017-09-30T19:58:32.531Z,0.00
2017-09-30T19:59:32.491Z,0.00
2017-09-30T20:00:32.537Z,0.00
2017-09-30T20:01:32.446Z,0.00
2017-09-30T20:02:32.568Z,0.00
2017-09-30T20:03:32.406Z,0.00
2017-09-30T20:04:32.465Z,0.00
2017-09-30T20:05:32.393Z,0.00
2017-09-30T20:06:32.516Z,0.00
2017-09-30T20:07:32.349Z,0.00
2017-09-30T20:08:32.395Z,0.00
2017-09-30T20:09:32.324Z,0.00
2017-09-30T20:10:32.413Z,0.00
2017-09-30T20:11:32.290Z,0.00
2017-09-30T20:12:32.278Z,0.00
2017-09-30T20:13:32.321Z,0.00
2017-09-30T20:14:32.245Z,0.00
2017-09-30T20:15:32.344Z,0.00
2017-09-30T20:16:32.212Z,0.00
2017-09-30T20:17:32.255Z,0.00
2017-09-30T20:18:32.189Z,0.00
2017-09-30T20:19:32.270Z,0.00
2017-09-30T20:20:32.172Z,0.00
2017-09-30T20:21:32.176Z,0.00
2017-09-30T20:22:32.146Z,0.00
2017-09-30T20:23:32.191Z,0.00
2017-09-30T20:24:32.124Z,0.00
2017-09-30T20:25:32.209Z,0.00
2017-09-30T20:26:32.118Z,0.00
2017-09-30T20:27:32.123Z,0.00
2017-09-30T20:28:32.044Z,0.00
2017-09-30T20:29:32.135Z,0.00
2017-09-30T20:30:32.009Z,0.00
2017-09-30T20:31:32.048Z,0.00
2017-09-30T20:32:31.990Z,0.00
2017-09-30T20:33:32.059Z,0.00
2017-09-30T20:34:31.973Z,0.00
2017-09-30T20:35:31.977Z,0.00
2017-09-30T20:36:31.937Z,0.00
2017-09-30T20:37:31.988Z,0.00
2017-09-30T20:38:31.896Z,0.00
2017-09-30T20:39:32.003Z,0.00
2017-09-30T20:40:31.865Z,0.00
2017-09-30T20:41:31.907Z,0.00
2017-09-30T20:42:31.847Z,0.00
2017-09-30T20:43:31.925Z,0.00
2017-09-30T20:44:31.799Z,0.00
2017-09-30T20:45:31.842Z,0.00
2017-09-30T20:46:31.776Z,0.00
2017-09-30T20:47:31.849Z,0.00
2017-09-30T20:48:31.755Z,0.00
2017-09-30T20:49:31.771Z,0.00
2017-09-30T20:50:31.711Z,0.00
2017-09-30T20:51:31.776Z,0.00
2017-09-30T20:52:31.710Z,0.00
2017-09-30T20:53:31.803Z,0.00
2017-09-30T20:54:31.652Z,0.00
2017-09-30T20:55:31.709Z,0.00
2017-09-30T20:56:31.622Z,0.00
2017-09-30T20:57:31.732Z,0.00
2017-09-30T20:58:31.590Z,0.00
2017-09-30T20:59:31.630Z,0.00
2017-09-30T21:00:31.561Z,0.00
2017-09-30T21:01:31.655Z,0.00
2017-09-30T21:02:31.533Z,0.00
2017-09-30T21:03:31.557Z,0.00
2017-09-30T21:04:31.516Z,0.00
2017-09-30T21:05:32.091Z,0.00
2017-09-30T21:06:31.483Z,0.00
2017-09-30T21:07:31.588Z,0.00
2017-09-30T21:08:31.463Z,0.00
2017-09-30T21:09:31.503Z,0.00
2017-09-30T21:10:31.425Z,0.00
2017-09-30T21:11:31.516Z,0.00
2017-09-30T21:12:31.380Z,0.00
2017-09-30T21:13:31.385Z,0.00
2017-09-30T21:15:31.345Z,0.00
2017-09-30T21:16:31.452Z,0.00
2017-09-30T21:17:31.311Z,0.00
2017-09-30T21:18:31.366Z,0.00
2017-09-30T21:19:31.279Z,0.00
2017-09-30T21:20:31.379Z,0.00
2017-09-30T21:21:31.251Z,0.00
2017-09-30T21:22:31.291Z,0.00
2017-09-30T21:23:31.217Z,0.00
2017-09-30T21:24:31.299Z,0.00
2017-09-30T21:25:31.185Z,0.00
2017-09-30T21:26:31.212Z,0.00
2017-09-30T21:27:31.163Z,0.00
2017-09-30T21:28:31.231Z,0.00
2017-09-30T21:29:31.147Z,0.00
2017-09-30T21:30:31.141Z,0.00
2017-09-30T21:31:31.099Z,0.00
2017-09-30T21:32:31.158Z,0.00
2017-09-30T21:33:31.060Z,0.00
2017-09-30T21:34:31.172Z,0.00
2017-09-30T21:35:31.033Z,0.00
2017-09-30T21:36:31.085Z,0.00
2017-09-30T21:37:31.002Z,0.00
2017-09-30T21:38:31.110Z,0.00
2017-09-30T21:39:30.993Z,0.00
2017-09-30T21:40:31.007Z,0.00
2017-09-30T21:41:30.951Z,0.00
2017-09-30T21:42:31.026Z,0.00
2017-09-30T21:43:30.916Z,0.00
2017-09-30T21:44:30.937Z,0.00
2017-09-30T21:45:30.899Z,0.00
2017-09-30T21:46:30.950Z,0.00
2017-09-30T21:47:30.853Z,0.00
2017-09-30T21:48:30.857Z,0.00
2017-09-30T21:49:30.828Z,0.00
2017-09-30T21:50:30.818Z,0.00
2017-09-30T21:51:30.793Z,0.00
2017-09-30T21:52:30.907Z,0.00
2017-09-30T21:53:30.766Z,0.00
2017-09-30T21:54:30.800Z,0.00
2017-09-30T21:55:30.716Z,0.00
2017-09-30T21:56:30.821Z,0.00
2017-09-30T21:57:30.698Z,0.00
2017-09-30T21:58:30.740Z,0.00
2017-09-30T21:59:30.667Z,0.00
2017-09-30T22:00:30.748Z,0.00
2017-09-30T22:01:30.639Z,0.00
2017-09-30T22:02:30.659Z,0.00
2017-09-30T22:03:30.593Z,0.00
2017-09-30T22:04:30.673Z,0.00
2017-09-30T22:05:30.566Z,0.00
2017-09-30T22:06:30.587Z,0.00
2017-09-30T22:07:30.524Z,0.00
2017-09-30T22:08:30.618Z,0.00
2017-09-30T22:09:30.504Z,0.00
2017-09-30T22:10:30.512Z,0.00
2017-09-30T22:11:30.461Z,0.00
2017-09-30T22:12:30.527Z,0.00
2017-09-30T22:13:30.450Z,0.00
2017-09-30T22:14:30.414Z,0.00
2017-09-30T22:15:30.444Z,0.00
2017-09-30T22:16:30.371Z,0.00
2017-09-30T22:17:30.459Z,0.00
2017-09-30T22:18:30.344Z,0.00
2017-09-30T22:19:30.349Z,0.00
2017-09-30T22:20:30.308Z,0.00
2017-09-30T22:21:30.389Z,0.00
2017-09-30T22:22:30.269Z,0.00
2017-09-30T22:23:30.300Z,0.00
2017-09-30T22:24:30.259Z,0.00
2017-09-30T22:25:30.307Z,0.00
2017-09-30T22:26:30.209Z,0.00
2017-09-30T22:27:30.329Z,0.00
2017-09-30T22:28:30.186Z,0.00
2017-09-30T22:29:30.236Z,0.00
2017-09-30T22:30:30.151Z,0.00
2017-09-30T22:31:30.255Z,0.00
2017-09-30T22:32:30.114Z,0.00
2017-09-30T22:33:30.162Z,0.00
2017-09-30T22:34:30.085Z,0.00
2017-09-30T22:35:30.178Z,0.00
2017-09-30T22:36:30.050Z,0.00
2017-09-30T22:37:30.086Z,0.00
2017-09-30T22:38:30.017Z,0.00
2017-09-30T22:39:30.110Z,0.00
2017-09-30T22:40:29.983Z,0.00
2017-09-30T22:41:30.020Z,0.00
2017-09-30T22:42:29.949Z,0.00
2017-09-30T22:43:30.029Z,0.00
2017-09-30T22:44:29.917Z,0.00
2017-09-30T22:45:29.946Z,0.00
2017-09-30T22:46:29.900Z,0.00
2017-09-30T22:47:29.959Z,0.00
2017-09-30T22:48:29.858Z,0.00
2017-09-30T22:49:29.975Z,0.00
2017-09-30T22:50:29.829Z,0.00
2017-09-30T22:51:29.890Z,0.00
2017-09-30T22:52:29.785Z,0.00
2017-09-30T22:53:29.897Z,0.00
2017-09-30T22:54:29.759Z,0.00
2017-09-30T22:55:29.810Z,0.00
2017-09-30T22:56:29.745Z,0.00
2017-09-30T22:57:29.833Z,0.00
2017-09-30T22:58:29.708Z,0.00
2017-09-30T22:59:29.790Z,0.00
2017-09-30T23:00:29.669Z,0.00
2017-09-30T23:01:29.759Z,0.00
2017-09-30T23:02:29.626Z,0.00
2017-09-30T23:03:29.628Z,0.00
2017-09-30T23:04:29.590Z,0.00
2017-09-30T23:05:29.686Z,0.00
2017-09-30T23:06:29.566Z,0.00
2017-09-30T23:07:29.590Z,0.00
2017-09-30T23:08:29.529Z,0.00
2017-09-30T23:09:29.611Z,0.00
2017-09-30T23:10:29.489Z,0.00
2017-09-30T23:11:29.521Z,0.00
2017-09-30T23:12:29.451Z,0.00
2017-09-30T23:13:29.533Z,0.00
2017-09-30T23:14:29.411Z,0.00
2017-09-30T23:15:29.446Z,0.00
2017-09-30T23:16:29.405Z,0.00
2017-09-30T23:17:29.454Z,0.00
2017-09-30T23:18:29.363Z,0.00
2017-09-30T23:19:29.397Z,0.00
2017-09-30T23:20:29.304Z,0.00
2017-09-30T23:21:29.387Z,0.00
2017-09-30T23:22:29.269Z,0.00
2017-09-30T23:23:29.304Z,0.00
2017-09-30T23:24:29.233Z,0.00
2017-09-30T23:25:29.314Z,0.00
2017-09-30T23:26:29.190Z,0.00
2017-09-30T23:27:29.222Z,0.00
2017-09-30T23:28:29.154Z,0.00
2017-09-30T23:29:29.238Z,0.00
2017-09-30T23:30:29.119Z,0.00
2017-09-30T23:31:29.170Z,0.00
2017-09-30T23:32:29.095Z,0.00
2017-09-30T23:33:29.167Z,0.00
2017-09-30T23:34:29.054Z,0.00
2017-09-30T23:35:29.103Z,0.00
2017-09-30T23:36:29.015Z,0.00
2017-09-30T23:37:29.096Z,0.00
2017-09-30T23:38:28.994Z,0.00
2017-09-30T23:39:29.012Z,0.00
2017-09-30T23:40:28.970Z,0.00
2017-09-30T23:41:29.019Z,0.00
2017-09-30T23:42:28.906Z,0.00
2017-09-30T23:43:28.933Z,0.00
2017-09-30T23:44:28.874Z,0.00
2017-09-30T23:45:28.946Z,0.00
2017-09-30T23:46:28.874Z,0.00
2017-09-30T23:47:28.867Z,0.00
2017-09-30T23:48:28.794Z,0.00
2017-09-30T23:49:28.880Z,0.00
2017-09-30T23:50:28.757Z,0.00
2017-09-30T23:52:28.727Z,0.00
2017-09-30T23:53:28.809Z,0.00
2017-09-30T23:54:28.676Z,0.00
2017-09-30T23:55:28.720Z,0.00
2017-09-30T23:56:28.639Z,0.00
2017-09-30T23:57:28.730Z,0.00
2017-09-30T23:58:28.602Z,0.00
2017-09-30T23:59:28.644Z,0.00
